sensor_id;sensor_type;location;lat;lon;timestamp;P1;durP1;ratioP1;P2;durP2;ratioP2
20956;SDS011;10637;47.970;7.830;2023-04-01T00:01:59;6.43;;;2.20;;
20956;SDS011;10637;47.970;7.830;2023-04-01T00:07:01;5.77;;;2.20;;
20956;SDS011;10637;47.970;7.830;2023-04-01T00:12:03;7.93;;;2.20;;
20956;SDS011;10637;47.970;7.830;2023-04-01T00:17:05;5.50;;;2.30;;
20956;SDS011;10637;47.970;7.830;2023-04-01T00:22:07;5.60;;;2.10;;
20956;SDS011;10637;47.970;7.830;2023-04-01T00:27:12;4.87;;;2.20;;
20956;SDS011;10637;47.970;7.830;2023-04-01T00:32:14;8.30;;;2.40;;
20956;SDS011;10637;47.970;7.830;2023-04-01T00:37:16;9.00;;;2.50;;
20956;SDS011;10637;47.970;7.830;2023-04-01T00:42:18;12.07;;;2.57;;
20956;SDS011;10637;47.970;7.830;2023-04-01T00:47:21;13.83;;;3.17;;
20956;SDS011;10637;47.970;7.830;2023-04-01T00:52:25;11.63;;;3.30;;
20956;SDS011;10637;47.970;7.830;2023-04-01T00:57:29;11.63;;;2.93;;
20956;SDS011;10637;47.970;7.830;2023-04-01T01:02:35;11.13;;;2.77;;
20956;SDS011;10637;47.970;7.830;2023-04-01T01:23:53;16.73;;;3.60;;
20956;SDS011;10637;47.970;7.830;2023-04-01T01:40:22;20.27;;;4.03;;
20956;SDS011;10637;47.970;7.830;2023-04-01T01:45:27;18.33;;;4.30;;
20956;SDS011;10637;47.970;7.830;2023-04-01T01:50:30;17.83;;;3.73;;
20956;SDS011;10637;47.970;7.830;2023-04-01T01:55:34;14.63;;;3.80;;
20956;SDS011;10637;47.970;7.830;2023-04-01T02:00:37;15.13;;;3.43;;
20956;SDS011;10637;47.970;7.830;2023-04-01T02:05:40;17.17;;;3.90;;
20956;SDS011;10637;47.970;7.830;2023-04-01T02:10:44;17.70;;;4.17;;
20956;SDS011;10637;47.970;7.830;2023-04-01T02:15:54;13.53;;;3.70;;
20956;SDS011;10637;47.970;7.830;2023-04-01T02:21:00;16.30;;;3.73;;
20956;SDS011;10637;47.970;7.830;2023-04-01T02:26:06;19.77;;;3.60;;
20956;SDS011;10637;47.970;7.830;2023-04-01T02:31:10;21.33;;;3.80;;
20956;SDS011;10637;47.970;7.830;2023-04-01T02:36:14;22.53;;;4.27;;
20956;SDS011;10637;47.970;7.830;2023-04-01T02:41:16;12.97;;;3.60;;
20956;SDS011;10637;47.970;7.830;2023-04-01T02:46:18;13.20;;;3.40;;
20956;SDS011;10637;47.970;7.830;2023-04-01T02:51:20;15.33;;;3.83;;
20956;SDS011;10637;47.970;7.830;2023-04-01T02:56:22;14.67;;;4.00;;
20956;SDS011;10637;47.970;7.830;2023-04-01T03:01:23;16.87;;;3.93;;
20956;SDS011;10637;47.970;7.830;2023-04-01T03:06:25;19.73;;;4.23;;
20956;SDS011;10637;47.970;7.830;2023-04-01T03:11:27;23.63;;;4.03;;
20956;SDS011;10637;47.970;7.830;2023-04-01T03:16:29;16.13;;;4.00;;
20956;SDS011;10637;47.970;7.830;2023-04-01T03:21:30;22.10;;;5.07;;
20956;SDS011;10637;47.970;7.830;2023-04-01T03:26:32;14.37;;;3.40;;
20956;SDS011;10637;47.970;7.830;2023-04-01T03:31:34;9.63;;;2.80;;
20956;SDS011;10637;47.970;7.830;2023-04-01T03:36:36;10.73;;;3.07;;
20956;SDS011;10637;47.970;7.830;2023-04-01T03:41:38;10.07;;;3.17;;
20956;SDS011;10637;47.970;7.830;2023-04-01T03:46:40;14.70;;;3.40;;
20956;SDS011;10637;47.970;7.830;2023-04-01T03:51:42;10.30;;;2.73;;
20956;SDS011;10637;47.970;7.830;2023-04-01T03:56:44;12.57;;;3.07;;
20956;SDS011;10637;47.970;7.830;2023-04-01T04:01:46;12.93;;;3.13;;
20956;SDS011;10637;47.970;7.830;2023-04-01T04:06:49;13.57;;;3.20;;
20956;SDS011;10637;47.970;7.830;2023-04-01T04:11:51;12.47;;;3.00;;
20956;SDS011;10637;47.970;7.830;2023-04-01T04:16:53;10.47;;;2.67;;
20956;SDS011;10637;47.970;7.830;2023-04-01T04:21:55;12.00;;;3.20;;
20956;SDS011;10637;47.970;7.830;2023-04-01T04:26:56;9.70;;;2.90;;
20956;SDS011;10637;47.970;7.830;2023-04-01T04:31:58;13.17;;;3.20;;
20956;SDS011;10637;47.970;7.830;2023-04-01T04:37:00;14.03;;;3.63;;
20956;SDS011;10637;47.970;7.830;2023-04-01T04:42:02;12.63;;;3.70;;
20956;SDS011;10637;47.970;7.830;2023-04-01T04:47:04;17.10;;;3.60;;
20956;SDS011;10637;47.970;7.830;2023-04-01T04:52:06;24.60;;;5.90;;
20956;SDS011;10637;47.970;7.830;2023-04-01T04:57:08;12.60;;;3.40;;
20956;SDS011;10637;47.970;7.830;2023-04-01T05:02:09;12.20;;;3.50;;
20956;SDS011;10637;47.970;7.830;2023-04-01T05:07:11;9.23;;;3.00;;
20956;SDS011;10637;47.970;7.830;2023-04-01T05:12:13;13.07;;;3.47;;
20956;SDS011;10637;47.970;7.830;2023-04-01T05:17:15;12.23;;;3.63;;
20956;SDS011;10637;47.970;7.830;2023-04-01T05:22:17;15.10;;;3.40;;
20956;SDS011;10637;47.970;7.830;2023-04-01T05:27:19;10.93;;;3.03;;
20956;SDS011;10637;47.970;7.830;2023-04-01T05:32:20;17.37;;;4.10;;
20956;SDS011;10637;47.970;7.830;2023-04-01T05:37:22;12.07;;;3.33;;
20956;SDS011;10637;47.970;7.830;2023-04-01T05:42:24;15.50;;;3.60;;
20956;SDS011;10637;47.970;7.830;2023-04-01T05:47:26;10.03;;;3.00;;
20956;SDS011;10637;47.970;7.830;2023-04-01T05:52:28;20.40;;;6.13;;
20956;SDS011;10637;47.970;7.830;2023-04-01T05:57:29;18.10;;;4.20;;
20956;SDS011;10637;47.970;7.830;2023-04-01T06:02:31;16.17;;;4.13;;
20956;SDS011;10637;47.970;7.830;2023-04-01T06:07:33;14.03;;;4.40;;
20956;SDS011;10637;47.970;7.830;2023-04-01T06:34:32;9.13;;;3.00;;
20956;SDS011;10637;47.970;7.830;2023-04-01T06:56:19;9.47;;;2.33;;
20956;SDS011;10637;47.970;7.830;2023-04-01T07:01:29;7.90;;;2.40;;
20956;SDS011;10637;47.970;7.830;2023-04-01T07:12:04;8.60;;;2.53;;
20956;SDS011;10637;47.970;7.830;2023-04-01T07:27:33;9.20;;;3.13;;
20956;SDS011;10637;47.970;7.830;2023-04-01T07:32:39;11.40;;;3.77;;
20956;SDS011;10637;47.970;7.830;2023-04-01T07:43:55;8.27;;;2.60;;
20956;SDS011;10637;47.970;7.830;2023-04-01T08:10:34;9.20;;;2.50;;
20956;SDS011;10637;47.970;7.830;2023-04-01T08:20:52;9.53;;;2.60;;
20956;SDS011;10637;47.970;7.830;2023-04-01T08:26:02;8.07;;;2.40;;
20956;SDS011;10637;47.970;7.830;2023-04-01T08:36:20;6.60;;;2.17;;
20956;SDS011;10637;47.970;7.830;2023-04-01T08:41:37;7.43;;;2.17;;
20956;SDS011;10637;47.970;7.830;2023-04-01T09:19:33;8.07;;;2.30;;
20956;SDS011;10637;47.970;7.830;2023-04-01T09:25:06;6.43;;;2.30;;
20956;SDS011;10637;47.970;7.830;2023-04-01T09:30:34;9.87;;;2.33;;
20956;SDS011;10637;47.970;7.830;2023-04-01T09:35:53;7.70;;;2.77;;
20956;SDS011;10637;47.970;7.830;2023-04-01T09:51:53;11.40;;;2.70;;
20956;SDS011;10637;47.970;7.830;2023-04-01T10:14:03;10.20;;;3.10;;
20956;SDS011;10637;47.970;7.830;2023-04-01T10:24:53;8.27;;;2.47;;
20956;SDS011;10637;47.970;7.830;2023-04-01T10:41:33;6.87;;;2.57;;
20956;SDS011;10637;47.970;7.830;2023-04-01T10:52:09;8.57;;;2.53;;
20956;SDS011;10637;47.970;7.830;2023-04-01T11:20:15;10.37;;;2.47;;
20956;SDS011;10637;47.970;7.830;2023-04-01T11:46:48;7.97;;;2.73;;
20956;SDS011;10637;47.970;7.830;2023-04-01T12:02:42;9.10;;;2.47;;
20956;SDS011;10637;47.970;7.830;2023-04-01T12:08:54;7.97;;;2.10;;
20956;SDS011;10637;47.970;7.830;2023-04-01T12:19:15;8.50;;;2.10;;
20956;SDS011;10637;47.970;7.830;2023-04-01T12:29:57;11.10;;;3.33;;
20956;SDS011;10637;47.970;7.830;2023-04-01T12:35:13;15.30;;;4.50;;
20956;SDS011;10637;47.970;7.830;2023-04-01T12:40:24;10.67;;;3.03;;
20956;SDS011;10637;47.970;7.830;2023-04-01T12:45:34;7.43;;;2.60;;
20956;SDS011;10637;47.970;7.830;2023-04-01T12:50:43;6.10;;;2.27;;
20956;SDS011;10637;47.970;7.830;2023-04-01T12:56:06;9.77;;;3.10;;
20956;SDS011;10637;47.970;7.830;2023-04-01T13:22:19;5.83;;;2.20;;
20956;SDS011;10637;47.970;7.830;2023-04-01T13:27:40;7.53;;;2.03;;
20956;SDS011;10637;47.970;7.830;2023-04-01T13:32:58;7.43;;;2.60;;
20956;SDS011;10637;47.970;7.830;2023-04-01T13:38:14;7.80;;;2.10;;
20956;SDS011;10637;47.970;7.830;2023-04-01T13:43:39;7.30;;;2.60;;
20956;SDS011;10637;47.970;7.830;2023-04-01T13:49:02;7.30;;;2.43;;
20956;SDS011;10637;47.970;7.830;2023-04-01T13:54:22;6.70;;;2.50;;
20956;SDS011;10637;47.970;7.830;2023-04-01T14:15:41;6.03;;;2.00;;
20956;SDS011;10637;47.970;7.830;2023-04-01T14:26:40;6.07;;;2.20;;
20956;SDS011;10637;47.970;7.830;2023-04-01T14:37:58;6.93;;;2.23;;
20956;SDS011;10637;47.970;7.830;2023-04-01T14:54:21;6.97;;;2.30;;
20956;SDS011;10637;47.970;7.830;2023-04-01T14:59:33;5.83;;;2.20;;
20956;SDS011;10637;47.970;7.830;2023-04-01T15:42:31;7.10;;;2.20;;
20956;SDS011;10637;47.970;7.830;2023-04-01T15:47:56;12.60;;;3.87;;
20956;SDS011;10637;47.970;7.830;2023-04-01T15:53:07;6.03;;;1.90;;
20956;SDS011;10637;47.970;7.830;2023-04-01T16:13:55;7.47;;;2.40;;
20956;SDS011;10637;47.970;7.830;2023-04-01T16:19:21;6.73;;;2.20;;
20956;SDS011;10637;47.970;7.830;2023-04-01T16:24:47;5.90;;;1.80;;
20956;SDS011;10637;47.970;7.830;2023-04-01T16:35:28;7.50;;;2.13;;
20956;SDS011;10637;47.970;7.830;2023-04-01T16:41:00;7.27;;;2.50;;
20956;SDS011;10637;47.970;7.830;2023-04-01T16:51:35;9.40;;;2.53;;
20956;SDS011;10637;47.970;7.830;2023-04-01T17:02:12;9.27;;;2.50;;
20956;SDS011;10637;47.970;7.830;2023-04-01T17:18:21;5.93;;;1.80;;
20956;SDS011;10637;47.970;7.830;2023-04-01T17:23:51;6.47;;;2.07;;
20956;SDS011;10637;47.970;7.830;2023-04-01T17:40:37;7.13;;;2.10;;
20956;SDS011;10637;47.970;7.830;2023-04-01T17:45:33;6.87;;;2.20;;
20956;SDS011;10637;47.970;7.830;2023-04-01T17:56:11;6.90;;;2.40;;
20956;SDS011;10637;47.970;7.830;2023-04-01T18:12:29;7.43;;;2.90;;
20956;SDS011;10637;47.970;7.830;2023-04-01T18:22:44;8.13;;;2.73;;
20956;SDS011;10637;47.970;7.830;2023-04-01T18:33:19;7.63;;;3.20;;
20956;SDS011;10637;47.970;7.830;2023-04-01T18:38:25;11.13;;;4.00;;
20956;SDS011;10637;47.970;7.830;2023-04-01T18:43:32;8.93;;;3.07;;
20956;SDS011;10637;47.970;7.830;2023-04-01T18:48:52;7.80;;;3.47;;
20956;SDS011;10637;47.970;7.830;2023-04-01T18:54:17;7.70;;;3.03;;
20956;SDS011;10637;47.970;7.830;2023-04-01T18:59:30;7.37;;;3.00;;
20956;SDS011;10637;47.970;7.830;2023-04-01T19:05:00;8.10;;;3.03;;
20956;SDS011;10637;47.970;7.830;2023-04-01T19:21:18;10.90;;;3.80;;
20956;SDS011;10637;47.970;7.830;2023-04-01T19:26:42;9.60;;;4.37;;
20956;SDS011;10637;47.970;7.830;2023-04-01T19:32:08;12.87;;;5.20;;
20956;SDS011;10637;47.970;7.830;2023-04-01T19:37:36;12.20;;;5.53;;
20956;SDS011;10637;47.970;7.830;2023-04-01T19:42:45;11.07;;;4.80;;
20956;SDS011;10637;47.970;7.830;2023-04-01T19:48:08;8.90;;;4.03;;
20956;SDS011;10637;47.970;7.830;2023-04-01T19:53:38;8.77;;;4.07;;
20956;SDS011;10637;47.970;7.830;2023-04-01T19:58:55;10.13;;;3.70;;
20956;SDS011;10637;47.970;7.830;2023-04-01T20:04:10;8.77;;;3.73;;
20956;SDS011;10637;47.970;7.830;2023-04-01T20:14:50;10.07;;;3.87;;
20956;SDS011;10637;47.970;7.830;2023-04-01T20:19:59;10.00;;;3.90;;
20956;SDS011;10637;47.970;7.830;2023-04-01T20:30:30;9.13;;;2.90;;
20956;SDS011;10637;47.970;7.830;2023-04-01T20:36:21;12.67;;;4.60;;
20956;SDS011;10637;47.970;7.830;2023-04-01T20:47:07;7.90;;;3.00;;
20956;SDS011;10637;47.970;7.830;2023-04-01T20:52:32;8.97;;;3.07;;
20956;SDS011;10637;47.970;7.830;2023-04-01T20:57:56;7.60;;;2.60;;
20956;SDS011;10637;47.970;7.830;2023-04-01T21:14:03;6.47;;;2.30;;
20956;SDS011;10637;47.970;7.830;2023-04-01T21:19:36;5.53;;;2.10;;
20956;SDS011;10637;47.970;7.830;2023-04-01T21:35:30;8.10;;;1.93;;
20956;SDS011;10637;47.970;7.830;2023-04-01T22:09:27;7.10;;;2.10;;
20956;SDS011;10637;47.970;7.830;2023-04-01T22:14:06;5.13;;;1.83;;
20956;SDS011;10637;47.970;7.830;2023-04-01T22:30:10;7.37;;;2.00;;
20956;SDS011;10637;47.970;7.830;2023-04-01T22:51:38;9.73;;;2.43;;
20956;SDS011;10637;47.970;7.830;2023-04-01T22:56:48;7.30;;;2.25;;
20956;SDS011;10637;47.970;7.830;2023-04-01T23:02:03;10.10;;;2.60;;
20956;SDS011;10637;47.970;7.830;2023-04-01T23:12:48;7.90;;;2.13;;
20956;SDS011;10637;47.970;7.830;2023-04-01T23:33:54;8.47;;;2.57;;
20956;SDS011;10637;47.970;7.830;2023-04-01T23:39:05;6.77;;;2.13;;
20956;SDS011;10637;47.970;7.830;2023-04-01T23:44:18;8.07;;;2.50;;
20956;SDS011;10637;47.970;7.830;2023-04-01T23:49:22;8.13;;;2.57;;
20956;SDS011;10637;47.970;7.830;2023-04-01T23:54:33;7.07;;;2.33;;
